createdAt,value
2018-01-14T00:02:10.556Z,74.16
2018-01-14T00:04:39.172Z,74.29
2018-01-14T00:07:07.632Z,74.95
2018-01-14T00:09:36.074Z,75.21
2018-01-14T00:12:05.200Z,75.81
2018-01-14T00:14:33.636Z,75.64
2018-01-14T00:17:02.032Z,75.44
2018-01-14T00:19:30.391Z,75.57
2018-01-14T00:21:59.943Z,75.58
2018-01-14T00:24:28.308Z,75.00
2018-01-14T00:26:56.684Z,74.67
2018-01-14T00:29:25.076Z,75.06
2018-01-14T00:31:53.492Z,75.40
2018-01-14T00:34:23.256Z,75.24
2018-01-14T00:36:51.635Z,75.10
2018-01-14T00:39:20.032Z,75.00
2018-01-14T00:41:48.415Z,74.99
2018-01-14T00:44:16.776Z,75.27
2018-01-14T00:46:45.184Z,75.50
2018-01-14T00:49:13.768Z,75.60
2018-01-14T00:51:42.124Z,75.41
2018-01-14T00:54:10.479Z,75.66
2018-01-14T00:56:38.915Z,75.55
2018-01-14T00:59:07.260Z,75.36
2018-01-14T01:01:35.687Z,75.29
2018-01-14T01:04:04.048Z,74.82
2018-01-14T01:06:33.363Z,74.59
2018-01-14T01:09:01.712Z,74.31
2018-01-14T01:11:30.067Z,74.07
2018-01-14T01:13:58.460Z,74.22
2018-01-14T01:16:26.803Z,74.37
2018-01-14T01:18:55.199Z,74.36
2018-01-14T01:21:23.555Z,74.39
2018-01-14T01:23:51.939Z,74.52
2018-01-14T01:26:20.287Z,74.30
2018-01-14T01:28:49.459Z,74.09
2018-01-14T01:31:17.823Z,74.36
2018-01-14T01:33:46.179Z,74.03
2018-01-14T01:36:15.371Z,74.15
2018-01-14T01:38:43.710Z,73.99
2018-01-14T01:41:12.865Z,74.14
2018-01-14T01:43:41.218Z,74.06
2018-01-14T01:46:09.623Z,74.10
2018-01-14T01:48:38.219Z,74.17
2018-01-14T01:51:06.650Z,74.53
2018-01-14T01:53:35.123Z,75.01
2018-01-14T01:56:03.587Z,74.78
2018-01-14T01:58:32.767Z,75.04
2018-01-14T02:01:01.119Z,75.11
2018-01-14T02:03:29.512Z,74.84
2018-01-14T02:05:57.903Z,74.86
2018-01-14T02:08:26.287Z,74.54
2018-01-14T02:10:55.395Z,74.90
2018-01-14T02:13:24.567Z,74.81
2018-01-14T02:15:52.919Z,75.00
2018-01-14T02:18:21.318Z,75.55
2018-01-14T02:20:49.674Z,75.71
2018-01-14T02:23:18.022Z,75.69
2018-01-14T02:25:46.435Z,76.35
2018-01-14T02:28:14.775Z,76.60
2018-01-14T02:30:43.145Z,76.59
2018-01-14T02:33:11.539Z,76.86
2018-01-14T02:35:39.922Z,76.86
2018-01-14T02:38:08.308Z,77.03
2018-01-14T02:40:37.498Z,76.95
2018-01-14T02:43:05.843Z,77.46
2018-01-14T02:45:35.002Z,77.60
2018-01-14T02:48:03.360Z,77.63
2018-01-14T02:50:31.748Z,77.24
2018-01-14T02:53:00.096Z,76.79
2018-01-14T02:55:28.450Z,76.60
2018-01-14T02:57:57.660Z,76.80
2018-01-14T03:00:26.002Z,76.52
2018-01-14T03:02:54.391Z,76.46
2018-01-14T03:05:22.738Z,76.32
2018-01-14T03:07:51.138Z,76.55
2018-01-14T03:10:19.530Z,77.02
2018-01-14T03:12:48.650Z,77.51
2018-01-14T03:15:17.002Z,77.76
2018-01-14T03:17:46.150Z,77.78
2018-01-14T03:20:14.522Z,77.76
2018-01-14T03:22:42.899Z,77.71
2018-01-14T03:25:11.238Z,77.56
2018-01-14T03:27:40.341Z,77.70
2018-01-14T03:30:09.503Z,78.06
2018-01-14T03:32:37.882Z,78.21
2018-01-14T03:35:06.286Z,78.01
2018-01-14T03:37:35.394Z,77.96
2018-01-14T03:40:03.789Z,77.78
2018-01-14T03:42:32.141Z,78.26
2018-01-14T03:45:00.481Z,78.31
2018-01-14T03:47:28.874Z,78.06
2018-01-14T03:49:57.233Z,78.30
2018-01-14T03:52:25.591Z,78.50
2018-01-14T03:54:53.982Z,78.48
2018-01-14T03:57:22.317Z,78.51
2018-01-14T03:59:50.690Z,78.05
2018-01-14T04:02:19.822Z,77.58
2018-01-14T04:04:48.220Z,77.80
2018-01-14T04:07:16.646Z,78.16
2018-01-14T04:09:45.798Z,77.85
2018-01-14T04:12:14.163Z,77.97
2018-01-14T04:14:42.550Z,77.75
2018-01-14T04:17:10.902Z,77.72
2018-01-14T04:19:39.253Z,77.29
2018-01-14T04:22:08.408Z,77.14
2018-01-14T04:24:36.774Z,77.44
2018-01-14T04:27:05.126Z,77.59
2018-01-14T04:29:33.541Z,77.51
2018-01-14T04:32:01.922Z,77.87
2018-01-14T04:34:30.273Z,77.53
2018-01-14T04:36:58.667Z,77.49
2018-01-14T04:39:27.006Z,77.90
2018-01-14T04:41:55.349Z,77.80
2018-01-14T04:44:23.753Z,77.27
2018-01-14T04:46:52.902Z,77.39
2018-01-14T04:49:21.241Z,77.79
2018-01-14T04:51:49.621Z,77.81
2018-01-14T04:54:17.977Z,77.20
2018-01-14T04:56:47.090Z,77.15
2018-01-14T04:59:15.475Z,77.05
2018-01-14T05:01:43.846Z,77.08
2018-01-14T05:04:12.179Z,76.63
2018-01-14T05:06:40.581Z,76.83
2018-01-14T05:09:09.697Z,76.46
2018-01-14T05:11:38.094Z,76.38
2018-01-14T05:14:06.485Z,76.25
2018-01-14T05:16:34.857Z,76.42
2018-01-14T05:19:03.202Z,75.86
2018-01-14T05:21:32.319Z,75.72
2018-01-14T05:24:00.693Z,75.48
2018-01-14T05:26:29.069Z,75.51
2018-01-14T05:28:57.452Z,75.63
2018-01-14T05:31:25.833Z,75.30
2018-01-14T05:33:54.953Z,75.36
2018-01-14T05:36:23.421Z,75.38
2018-01-14T05:38:51.761Z,74.69
2018-01-14T05:41:20.873Z,74.42
2018-01-14T05:43:49.257Z,73.40
2018-01-14T05:46:17.617Z,72.65
2018-01-14T05:48:46.005Z,72.00
2018-01-14T05:51:14.421Z,71.67
2018-01-14T05:53:42.812Z,70.78
2018-01-14T05:56:11.181Z,69.83
2018-01-14T05:58:39.505Z,68.95
2018-01-14T06:01:08.633Z,69.67
2018-01-14T06:03:37.041Z,69.91
2018-01-14T06:06:05.379Z,69.96
2018-01-14T06:08:33.714Z,70.23
2018-01-14T06:11:02.122Z,70.00
2018-01-14T06:13:30.473Z,70.24
2018-01-14T06:15:58.825Z,70.52
2018-01-14T06:18:27.193Z,70.16
2018-01-14T06:20:55.592Z,70.00
2018-01-14T06:23:23.933Z,69.18
2018-01-14T06:25:52.272Z,68.98
2018-01-14T06:28:21.444Z,68.09
2018-01-14T06:30:49.852Z,67.90
2018-01-14T06:33:18.976Z,67.99
2018-01-14T06:35:47.351Z,67.97
2018-01-14T06:38:15.721Z,68.61
2018-01-14T06:40:44.072Z,68.44
2018-01-14T06:43:13.216Z,68.57
2018-01-14T06:45:41.596Z,69.04
2018-01-14T06:48:09.936Z,69.07
2018-01-14T06:50:39.096Z,68.98
2018-01-14T06:53:07.437Z,69.28
2018-01-14T06:55:35.825Z,68.47
2018-01-14T06:58:04.164Z,68.39
2018-01-14T07:00:33.313Z,68.65
2018-01-14T07:03:01.684Z,68.59
2018-01-14T07:05:30.076Z,68.25
2018-01-14T07:07:58.432Z,68.17
2018-01-14T07:10:26.816Z,68.52
2018-01-14T07:12:55.172Z,68.28
2018-01-14T07:15:23.524Z,68.51
2018-01-14T07:17:52.673Z,68.55
2018-01-14T07:20:22.077Z,69.13
2018-01-14T07:22:50.484Z,68.87
2018-01-14T07:25:18.836Z,68.79
2018-01-14T07:27:47.224Z,68.56
2018-01-14T07:30:15.692Z,68.38
2018-01-14T07:32:44.092Z,68.67
2018-01-14T07:35:12.512Z,68.39
2018-01-14T07:37:40.892Z,67.84
2018-01-14T07:40:09.244Z,67.58
2018-01-14T07:42:38.381Z,67.53
2018-01-14T07:45:06.776Z,67.10
2018-01-14T07:47:35.148Z,66.43
2018-01-14T07:50:03.556Z,66.72
2018-01-14T07:52:31.920Z,66.68
2018-01-14T07:55:00.308Z,66.69
2018-01-14T07:57:29.460Z,66.54
2018-01-14T07:59:57.816Z,66.57
2018-01-14T08:02:26.968Z,66.50
2018-01-14T08:04:55.380Z,66.37
2018-01-14T08:07:24.548Z,65.76
2018-01-14T08:09:53.036Z,65.40
2018-01-14T08:12:21.468Z,65.08
2018-01-14T08:14:49.872Z,65.25
2018-01-14T08:17:18.356Z,65.04
2018-01-14T08:19:46.756Z,65.27
2018-01-14T08:22:15.180Z,65.43
2018-01-14T08:24:45.160Z,65.06
2018-01-14T08:27:13.572Z,65.01
2018-01-14T08:29:41.908Z,65.11
2018-01-14T08:32:10.242Z,64.89
2018-01-14T08:34:39.032Z,64.68
2018-01-14T08:37:07.403Z,64.73
2018-01-14T08:39:35.744Z,64.47
2018-01-14T08:42:04.922Z,64.69
2018-01-14T08:44:33.270Z,64.73
2018-01-14T08:47:01.608Z,65.21
2018-01-14T08:49:30.756Z,65.39
2018-01-14T08:51:59.160Z,65.32
2018-01-14T08:54:28.320Z,64.85
2018-01-14T08:56:56.693Z,65.21
2018-01-14T08:59:26.632Z,64.71
2018-01-14T09:01:55.957Z,65.11
2018-01-14T09:04:25.127Z,65.28
2018-01-14T09:06:53.465Z,65.59
2018-01-14T09:09:21.860Z,65.14
2018-01-14T09:11:50.983Z,65.25
2018-01-14T09:14:19.367Z,64.88
2018-01-14T09:16:47.735Z,64.70
2018-01-14T09:19:16.131Z,64.65
2018-01-14T09:21:44.483Z,64.29
2018-01-14T09:24:12.820Z,64.53
2018-01-14T09:26:41.217Z,64.30
2018-01-14T09:29:10.454Z,63.62
2018-01-14T09:31:39.629Z,63.06
2018-01-14T09:34:07.964Z,63.06
2018-01-14T09:36:37.115Z,62.81
2018-01-14T09:39:06.304Z,62.37
2018-01-14T09:41:35.093Z,62.28
2018-01-14T09:44:03.464Z,62.03
2018-01-14T09:46:31.859Z,61.53
2018-01-14T09:49:00.231Z,62.40
2018-01-14T09:51:28.604Z,61.33
2018-01-14T09:53:56.961Z,60.28
2018-01-14T09:56:26.219Z,59.98
2018-01-14T09:58:54.555Z,59.99
2018-01-14T10:01:23.647Z,59.76
2018-01-14T10:03:52.850Z,60.84
2018-01-14T10:06:21.651Z,61.62
2018-01-14T10:08:49.988Z,61.22
2018-01-14T10:11:18.357Z,62.12
2018-01-14T10:13:47.520Z,63.05
2018-01-14T10:16:15.888Z,62.95
2018-01-14T10:18:44.237Z,61.93
2018-01-14T10:21:13.316Z,61.27
2018-01-14T10:23:41.699Z,62.35
2018-01-14T10:26:10.092Z,62.82
2018-01-14T10:28:38.434Z,61.97
2018-01-14T10:31:06.819Z,62.65
2018-01-14T10:33:35.964Z,62.76
2018-01-14T10:36:04.352Z,63.38
2018-01-14T10:38:32.712Z,63.95
2018-01-14T10:41:01.042Z,63.99
2018-01-14T10:43:29.426Z,64.18
2018-01-14T10:45:57.783Z,64.29
2018-01-14T10:48:26.944Z,64.65
2018-01-14T10:50:55.324Z,65.08
2018-01-14T10:53:23.663Z,65.11
2018-01-14T10:55:52.073Z,64.98
2018-01-14T10:58:20.459Z,65.12
2018-01-14T11:00:54.415Z,64.98
2018-01-14T11:03:23.950Z,65.24
2018-01-14T11:08:49.043Z,65.11
2018-01-14T11:11:17.698Z,65.56
2018-01-14T11:13:46.142Z,65.51
2018-01-14T11:16:14.538Z,65.79
2018-01-14T11:18:43.727Z,65.51
2018-01-14T11:21:12.100Z,65.51
2018-01-14T11:23:40.880Z,65.79
2018-01-14T11:26:09.268Z,66.09
2018-01-14T11:28:40.701Z,66.07
2018-01-14T11:31:09.858Z,66.01
2018-01-14T11:33:39.428Z,66.08
2018-01-14T11:36:08.626Z,66.09
2018-01-14T11:38:37.042Z,66.12
2018-01-14T11:41:06.175Z,65.78
2018-01-14T11:43:34.526Z,65.41
2018-01-14T11:46:03.212Z,65.53
2018-01-14T11:48:32.447Z,65.22
2018-01-14T11:51:00.908Z,64.89
2018-01-14T11:53:29.314Z,65.34
2018-01-14T11:55:57.730Z,65.03
2018-01-14T11:58:26.102Z,65.34
2018-01-14T12:00:55.622Z,65.33
2018-01-14T12:03:24.777Z,65.36
2018-01-14T12:05:53.194Z,65.54
2018-01-14T12:08:22.965Z,65.85
2018-01-14T12:10:51.316Z,65.67
2018-01-14T12:13:20.098Z,65.68
2018-01-14T12:15:49.240Z,65.37
2018-01-14T12:18:18.498Z,65.53
2018-01-14T12:20:47.590Z,65.37
2018-01-14T12:23:16.030Z,65.46
2018-01-14T12:25:45.910Z,65.68
2018-01-14T12:28:14.262Z,65.32
2018-01-14T12:30:42.719Z,64.86
2018-01-14T12:33:11.869Z,64.64
2018-01-14T12:35:40.990Z,64.65
2018-01-14T12:38:09.334Z,64.83
2018-01-14T12:40:37.791Z,65.11
2018-01-14T12:43:06.122Z,65.01
2018-01-14T12:45:34.845Z,64.80
2018-01-14T12:48:03.633Z,65.05
2018-01-14T12:50:31.974Z,65.12
2018-01-14T12:53:00.446Z,65.28
2018-01-14T12:55:28.797Z,65.42
2018-01-14T12:57:57.146Z,65.16
2018-01-14T13:00:25.929Z,64.63
2018-01-14T13:02:54.671Z,64.62
2018-01-14T13:05:23.769Z,64.82
2018-01-14T13:07:52.135Z,64.86
2018-01-14T13:10:20.466Z,64.64
2018-01-14T13:12:48.834Z,64.94
2018-01-14T13:15:17.962Z,64.80
2018-01-14T13:17:46.341Z,64.70
2018-01-14T13:20:14.718Z,65.07
2018-01-14T13:22:44.357Z,65.43
2018-01-14T13:25:12.713Z,65.32
2018-01-14T13:27:41.842Z,65.56
2018-01-14T13:30:10.215Z,65.29
2018-01-14T13:32:38.994Z,65.14
2018-01-14T13:35:08.186Z,65.45
2018-01-14T13:37:36.518Z,65.61
2018-01-14T13:40:04.884Z,65.87
2018-01-14T13:42:34.018Z,65.59
2018-01-14T13:45:03.241Z,65.34
2018-01-14T13:47:31.611Z,65.47
2018-01-14T13:49:59.956Z,65.49
2018-01-14T13:52:28.326Z,66.33
2018-01-14T13:54:57.117Z,66.77
2018-01-14T13:57:25.905Z,66.75
2018-01-14T13:59:55.830Z,66.90
2018-01-14T14:02:24.619Z,67.10
2018-01-14T14:04:52.957Z,66.95
2018-01-14T14:07:22.073Z,67.14
2018-01-14T14:09:50.457Z,67.25
2018-01-14T14:12:19.580Z,67.52
2018-01-14T14:14:47.931Z,67.43
2018-01-14T14:17:18.663Z,67.67
2018-01-14T14:19:48.844Z,67.60
2018-01-14T14:22:17.319Z,67.87
2018-01-14T14:24:45.673Z,68.03
2018-01-14T14:27:14.801Z,68.18
2018-01-14T14:29:43.201Z,68.33
2018-01-14T14:32:12.405Z,68.12
2018-01-14T14:34:40.747Z,68.56
2018-01-14T14:37:09.145Z,68.11
2018-01-14T14:39:37.903Z,68.18
2018-01-14T14:42:06.250Z,68.11
2018-01-14T14:44:34.709Z,68.36
2018-01-14T14:47:05.385Z,68.65
2018-01-14T14:49:34.025Z,68.95
2018-01-14T14:52:03.917Z,68.71
2018-01-14T14:54:33.140Z,68.34
2018-01-14T14:57:01.516Z,68.45
2018-01-14T14:59:30.252Z,68.69
2018-01-14T15:01:59.533Z,68.78
2018-01-14T15:04:27.917Z,68.54
2018-01-14T15:06:56.266Z,68.45
2018-01-14T15:09:24.638Z,68.80
2018-01-14T15:11:54.061Z,69.18
2018-01-14T15:14:22.438Z,69.16
2018-01-14T15:16:50.871Z,69.39
2018-01-14T15:19:20.016Z,69.27
2018-01-14T15:21:49.782Z,69.55
2018-01-14T15:24:18.942Z,69.59
2018-01-14T15:26:47.399Z,69.58
2018-01-14T15:29:17.481Z,69.50
2018-01-14T15:31:46.610Z,69.54
2018-01-14T15:34:15.333Z,69.62
2018-01-14T15:36:44.109Z,69.66
2018-01-14T15:39:12.648Z,69.65
2018-01-14T15:41:42.604Z,70.03
2018-01-14T15:44:11.514Z,70.55
2018-01-14T15:46:39.873Z,70.92
2018-01-14T15:49:09.032Z,71.16
2018-01-14T15:51:38.424Z,71.45
2018-01-14T15:54:09.649Z,71.39
2018-01-14T15:56:38.042Z,71.55
2018-01-14T15:59:07.925Z,71.69
2018-01-14T16:01:36.325Z,71.68
2018-01-14T16:04:05.470Z,72.06
2018-01-14T16:06:34.266Z,72.42
2018-01-14T16:09:03.456Z,72.76
2018-01-14T16:11:32.261Z,73.04
2018-01-14T16:14:01.509Z,73.47
2018-01-14T16:16:30.698Z,73.45
2018-01-14T16:19:03.313Z,73.87
2018-01-14T16:21:39.795Z,73.88
2018-01-14T16:24:08.808Z,73.96
2018-01-14T16:26:39.033Z,73.77
2018-01-14T16:29:09.013Z,73.72
2018-01-14T16:31:38.185Z,73.88
2018-01-14T16:34:06.677Z,74.11
2018-01-14T16:36:35.113Z,74.14
2018-01-14T16:39:05.484Z,74.46
2018-01-14T16:41:36.096Z,74.36
2018-01-14T16:44:05.801Z,74.65
2018-01-14T16:46:35.121Z,74.45
2018-01-14T16:49:05.066Z,74.26
2018-01-14T16:51:34.223Z,74.39
2018-01-14T16:54:05.330Z,74.58
2018-01-14T16:56:34.840Z,75.94
2018-01-14T16:59:04.113Z,74.30
2018-01-14T17:01:32.528Z,74.66
2018-01-14T17:04:01.682Z,75.09
2018-01-14T17:06:30.113Z,74.90
2018-01-14T17:09:00.907Z,75.03
2018-01-14T17:11:29.385Z,75.00
2018-01-14T17:13:57.909Z,75.20
2018-01-14T17:16:26.685Z,75.29
2018-01-14T17:18:56.665Z,75.51
2018-01-14T17:21:26.108Z,75.57
2018-01-14T17:23:56.301Z,75.78
2018-01-14T17:26:25.540Z,75.94
2018-01-14T17:28:55.798Z,75.87
2018-01-14T17:31:24.200Z,75.98
2018-01-14T17:33:52.551Z,76.06
2018-01-14T17:36:20.996Z,76.18
2018-01-14T17:38:50.705Z,76.27
2018-01-14T17:41:20.317Z,75.95
2018-01-14T17:43:51.438Z,75.96
2018-01-14T17:46:19.846Z,76.35
2018-01-14T17:48:48.981Z,76.91
2018-01-14T17:51:18.131Z,76.41
2018-01-14T17:53:47.304Z,76.50
2018-01-14T17:56:16.912Z,76.45
2018-01-14T17:58:46.996Z,76.54
2018-01-14T18:01:16.018Z,76.36
2018-01-14T18:03:44.382Z,76.72
2018-01-14T18:06:13.187Z,76.96
2018-01-14T18:08:42.513Z,76.72
2018-01-14T18:11:14.330Z,76.72
2018-01-14T18:13:43.499Z,76.84
2018-01-14T18:16:13.705Z,76.80
2018-01-14T18:18:43.348Z,76.86
2018-01-14T18:21:17.620Z,76.74
2018-01-14T18:23:48.885Z,76.92
2018-01-14T18:26:17.436Z,77.08
2018-01-14T18:28:48.672Z,76.90
2018-01-14T18:31:17.795Z,76.85
2018-01-14T18:33:47.395Z,77.06
2018-01-14T18:36:16.699Z,77.13
2018-01-14T18:38:45.089Z,77.76
2018-01-14T18:41:14.644Z,77.30
2018-01-14T18:43:43.063Z,77.60
2018-01-14T18:46:13.463Z,77.34
2018-01-14T18:48:42.647Z,77.58
2018-01-14T18:51:11.054Z,77.31
2018-01-14T18:53:41.124Z,77.44
2018-01-14T18:56:10.492Z,77.46
2018-01-14T18:58:38.905Z,77.63
2018-01-14T19:01:09.983Z,77.72
2018-01-14T19:03:39.139Z,77.90
2018-01-14T19:06:08.307Z,78.13
2018-01-14T19:08:38.515Z,77.74
2018-01-14T19:11:08.455Z,77.76
2018-01-14T19:13:37.208Z,77.89
2018-01-14T19:16:06.992Z,77.80
2018-01-14T19:18:36.604Z,78.10
2018-01-14T19:21:05.058Z,78.73
2018-01-14T19:23:33.612Z,78.17
2018-01-14T19:26:02.007Z,78.38
2018-01-14T19:28:33.192Z,78.37
2018-01-14T19:31:03.067Z,78.42
2018-01-14T19:33:34.768Z,78.37
2018-01-14T19:36:03.979Z,78.52
2018-01-14T19:38:34.000Z,78.55
2018-01-14T19:41:02.429Z,78.60
2018-01-14T19:43:31.644Z,78.53
2018-01-14T19:45:59.995Z,78.68
2018-01-14T19:48:28.441Z,78.95
2018-01-14T19:50:56.858Z,78.95
2018-01-14T19:53:25.976Z,78.90
2018-01-14T19:55:55.437Z,78.65
2018-01-14T19:58:24.214Z,78.75
2018-01-14T20:00:54.419Z,78.53
2018-01-14T20:03:24.292Z,78.63
2018-01-14T20:05:53.606Z,78.84
2018-01-14T20:08:24.638Z,78.87
2018-01-14T20:10:54.224Z,78.87
2018-01-14T20:13:23.939Z,79.05
2018-01-14T20:15:52.933Z,79.29
2018-01-14T20:18:21.346Z,79.43
2018-01-14T20:20:50.579Z,79.32
2018-01-14T20:23:18.943Z,79.24
2018-01-14T20:25:47.727Z,79.31
2018-01-14T20:28:16.258Z,79.21
2018-01-14T20:30:45.690Z,79.17
2018-01-14T20:33:15.762Z,79.30
2018-01-14T20:35:45.166Z,79.60
2018-01-14T20:38:13.934Z,79.61
2018-01-14T20:40:42.473Z,79.69
2018-01-14T20:43:12.090Z,79.70
2018-01-14T20:45:41.470Z,79.81
2018-01-14T20:48:09.858Z,79.88
2018-01-14T20:50:38.230Z,79.89
2018-01-14T20:53:07.137Z,79.91
2018-01-14T20:55:37.946Z,80.16
2018-01-14T20:58:08.066Z,80.14
2018-01-14T21:00:36.822Z,79.94
2018-01-14T21:03:06.778Z,80.03
2018-01-14T21:05:35.658Z,79.92
2018-01-14T21:08:04.070Z,79.89
2018-01-14T21:10:32.514Z,80.11
2018-01-14T21:13:00.914Z,80.15
2018-01-14T21:15:30.652Z,80.16
2018-01-14T21:17:59.545Z,80.24
2018-01-14T21:20:28.374Z,80.34
2018-01-14T21:22:57.560Z,80.40
2018-01-14T21:25:25.965Z,80.27
2018-01-14T21:27:55.766Z,80.33
2018-01-14T21:30:24.194Z,80.08
2018-01-14T21:32:53.340Z,80.08
2018-01-14T21:35:21.676Z,80.15
2018-01-14T21:37:50.877Z,80.11
2018-01-14T21:40:19.266Z,80.03
2018-01-14T21:42:47.665Z,80.18
2018-01-14T21:45:16.501Z,80.39
2018-01-14T21:47:45.681Z,80.42
2018-01-14T21:50:14.845Z,80.49
2018-01-14T21:52:43.235Z,80.65
2018-01-14T21:55:11.613Z,80.75
2018-01-14T21:57:40.489Z,80.80
2018-01-14T22:00:10.379Z,80.94
2018-01-14T22:02:38.749Z,81.06
2018-01-14T22:05:07.145Z,81.27
2018-01-14T22:07:35.467Z,81.38
2018-01-14T22:10:03.851Z,81.24
2018-01-14T22:12:32.206Z,81.31
2018-01-14T22:15:00.981Z,81.32
2018-01-14T22:17:29.775Z,81.35
2018-01-14T22:19:58.565Z,81.38
2018-01-14T22:22:28.062Z,81.12
2018-01-14T22:24:56.849Z,80.66
2018-01-14T22:27:25.585Z,80.96
2018-01-14T22:29:54.695Z,81.25
2018-01-14T22:32:23.126Z,81.02
2018-01-14T22:34:51.889Z,80.96
2018-01-14T22:37:20.269Z,81.18
2018-01-14T22:39:48.657Z,81.30
2018-01-14T22:42:17.021Z,81.48
2018-01-14T22:44:45.402Z,81.57
2018-01-14T22:47:13.763Z,81.57
2018-01-14T22:49:42.168Z,81.76
2018-01-14T22:52:10.513Z,81.87
2018-01-14T22:54:38.894Z,81.98
2018-01-14T22:57:07.640Z,82.08
2018-01-14T22:59:37.536Z,82.36
2018-01-14T23:02:05.917Z,82.23
2018-01-14T23:04:34.292Z,82.08
2018-01-14T23:07:03.088Z,81.98
2018-01-14T23:09:31.505Z,82.17
2018-01-14T23:12:00.657Z,82.30
2018-01-14T23:14:29.053Z,82.32
2018-01-14T23:16:57.401Z,82.32
2018-01-14T23:19:26.524Z,82.42
2018-01-14T23:21:54.910Z,82.49
2018-01-14T23:24:23.417Z,82.39
2018-01-14T23:26:51.805Z,82.40
2018-01-14T23:29:20.162Z,82.73
2018-01-14T23:31:49.350Z,82.56
2018-01-14T23:34:18.497Z,82.62
2018-01-14T23:36:46.840Z,82.63
2018-01-14T23:39:15.201Z,82.78
2018-01-14T23:41:44.352Z,82.92
2018-01-14T23:44:12.701Z,83.05
2018-01-14T23:46:41.084Z,83.03
2018-01-14T23:49:09.428Z,83.12
2018-01-14T23:51:38.556Z,83.10
2018-01-14T23:54:06.936Z,83.07
2018-01-14T23:56:35.280Z,83.13
2018-01-14T23:59:04.736Z,82.61
